Time;durP1;ratioP1;P1;durP2;ratioP2;P2;SDS_P1;SDS_P2;PMS_P1;PMS_P2;Temp;Humidity;BMP_temperature;BMP_pressure;BME280_temperature;BME280_humidity;BME280_pressure;Samples;Min_cycle;Max_cycle;Signal;HPM_P1;HPM_P2
2020/12/02 19:14:42;;;;;;;16.35;7.80;;;;;;;19.13;43.32;95446.38;1056423;27;20343;-80
2020/12/02 19:15:34;;;;;;;14.02;6.50;;;;;;;19.20;43.62;95457.44;1039250;28;20549;-78
2020/12/02 19:16:07;;;;;;;9.00;6.43;;;;;;;19.21;43.03;95451.72;1052712;28;20063;-69
2020/12/02 19:16:41;;;;;;;10.70;6.93;;;;;;;19.23;43.07;95451.41;1051832;28;20111;-71
2020/12/02 19:17:27;;;;;;;15.10;7.10;;;;;;;19.29;44.67;95452.81;1051724;28;20060;-77
2020/12/02 19:18:16;;;;;;;24.95;7.75;;;;;;;19.20;42.34;95444.78;1047815;28;20444;-75
2020/12/02 19:19:08;;;;;;;16.30;7.78;;;;;;;19.00;39.86;95450.81;1052446;28;20012;-73
2020/12/02 19:19:50;;;;;;;21.20;16.75;;;;;;;18.05;32.33;95448.81;1056093;28;20036;-66
2020/12/02 19:20:39;;;;;;;27.08;23.33;;;;;;;12.23;30.70;95449.25;1055972;28;20027;-74
2020/12/02 19:21:22;;;;;;;27.02;23.75;;;;;;;11.70;33.41;95448.91;1051947;28;20032;-72
2020/12/02 19:22:13;;;;;;;28.00;24.77;;;;;;;10.23;34.43;95460.44;1051979;28;20023;-81
2020/12/02 19:22:43;;;;;;;30.98;26.17;;;;;;;7.22;40.24;95469.59;1047977;28;20413;-78
2020/12/02 19:23:40;;;;;;;30.65;26.23;;;;;;;4.83;45.93;95473.06;1051814;28;20040;-77
2020/12/02 19:24:38;;;;;;;31.13;25.45;;;;;;;4.01;48.20;95471.06;1053880;28;20027;-77
2020/12/02 19:25:26;;;;;;;30.08;24.75;;;;;;;3.87;49.35;95469.66;1047636;28;20040;-75
2020/12/02 19:26:02;;;;;;;30.58;23.77;;;;;;;3.29;50.24;95470.13;1047702;28;20492;-76
2020/12/02 19:26:53;;;;;;;34.28;25.35;;;;;;;1.86;56.33;95472.72;1044525;28;20044;-76
2020/12/02 19:28:01;;;;;;;35.38;25.45;;;;;;;0.99;57.88;95474.06;1051888;28;20035;-76
2020/12/02 19:28:52;;;;;;;35.45;25.73;;;;;;;0.36;60.84;95480.75;1056322;28;20034;-77
2020/12/02 19:29:28;;;;;;;35.55;26.30;;;;;;;-0.26;62.49;95481.84;1056021;28;20111;-76
2020/12/02 19:30:38;;;;;;;36.25;26.15;;;;;;;-0.39;66.28;95477.41;1056032;28;20012;-76
2020/12/02 19:31:19;;;;;;;36.95;25.48;;;;;;;-0.66;66.03;95481.72;1052902;28;20035;-77
2020/12/02 19:31:53;;;;;;;40.00;25.75;;;;;;;-0.81;65.59;95483.66;1047794;28;20098;-79
2020/12/02 19:32:53;;;;;;;43.17;26.40;;;;;;;-1.06;68.96;95485.91;1035911;28;20466;-79
2020/12/02 19:33:23;;;;;;;;;;;;;;;-1.06;68.73;95476.31;1036181;28;20022;-79
2020/12/02 19:34:08;;;;;;;38.88;26.20;;;;;;;-1.31;69.75;95482.94;1039591;28;19913;-79
2020/12/02 19:34:47;;;;;;;36.97;25.10;;;;;;;-1.37;68.64;95476.72;1039662;28;20060;-79
2020/12/02 19:35:23;;;;;;;39.63;24.95;;;;;;;-1.30;68.52;95474.97;1041983;28;20037;-80
2020/12/02 19:36:12;;;;;;;42.33;26.90;;;;;;;-1.53;69.03;95482.22;1043693;28;20037;-81
2020/12/02 19:37:09;;;;;;;41.72;26.83;;;;;;;-1.48;73.24;95475.44;1052031;28;20029;-81
2020/12/02 19:38:02;;;;;;;40.15;25.92;;;;;;;-1.54;70.82;95481.41;1047757;28;20286;-81
2020/12/02 19:38:55;;;;;;;41.25;26.45;;;;;;;-1.68;70.97;95476.28;1047516;28;20417;-81
2020/12/02 19:39:44;;;;;;;40.30;25.75;;;;;;;-1.77;71.65;95484.22;1043602;28;20013;-79
2020/12/02 19:40:18;;;;;;;43.15;26.58;;;;;;;-1.71;71.84;95481.84;1043691;28;20506;-80
2020/12/02 19:40:58;;;;;;;37.55;24.83;;;;;;;-1.80;72.13;95474.19;1044273;28;20029;-82
2020/12/02 19:41:47;;;;;;;40.78;26.42;;;;;;;-1.83;71.16;95479.75;1043496;28;20116;-80
2020/12/02 19:42:37;;;;;;;40.15;27.27;;;;;;;-1.98;71.86;95473.84;1039377;28;20045;-81
2020/12/02 19:43:22;;;;;;;;;;;;;;;-2.12;71.99;95477.31;1042852;28;20464;-81
2020/12/02 19:44:06;;;;;;;44.05;27.25;;;;;;;-2.31;74.28;95475.31;1048228;28;19909;-80
2020/12/02 19:44:59;;;;;;;46.15;27.05;;;;;;;-2.19;75.17;95481.63;1047670;28;20032;-82
2020/12/02 19:45:31;;;;;;;45.08;27.23;;;;;;;-2.20;75.51;95473.03;1045921;28;20116;-79
2020/12/02 19:46:23;;;;;;;42.50;27.35;;;;;;;-2.22;76.48;95477.59;1051911;28;20012;-81
2020/12/02 19:47:07;;;;;;;43.78;27.15;;;;;;;-2.05;76.96;95480.75;1047716;28;20066;-82
2020/12/02 19:48:15;;;;;;;41.75;26.45;;;;;;;-2.10;75.68;95477.91;1043426;28;20036;-81
2020/12/02 19:48:48;;;;;;;47.22;27.80;;;;;;;-2.09;76.57;95477.72;1046361;28;20559;-80
2020/12/02 19:49:24;;;;;;;44.72;27.77;;;;;;;-2.06;76.98;95474.75;1047679;28;20029;-79
2020/12/02 19:49:54;;;;;;;44.88;27.05;;;;;;;-2.02;77.38;95476.97;1047798;28;20393;-85
2020/12/02 19:50:26;;;;;;;40.08;26.02;;;;;;;-2.11;75.71;95477.13;1048788;28;20016;-81
2020/12/02 19:51:00;;;;;;;46.38;28.75;;;;;;;-2.04;75.59;95477.16;1051921;28;20461;-78
2020/12/02 19:51:36;;;;;;;47.67;29.40;;;;;;;-2.04;75.37;95484.16;1052035;28;20020;-79
2020/12/02 19:52:10;;;;;;;44.00;28.05;;;;;;;-2.08;75.99;95476.75;1051742;28;20024;-79
2020/12/02 19:53:21;;;;;;;47.42;29.52;;;;;;;-2.13;76.32;95480.88;1047560;28;20099;-80
2020/12/02 19:53:56;;;;;;;45.03;27.95;;;;;;;-2.27;76.82;95481.72;1043002;28;20541;-81
2020/12/02 19:54:31;;;;;;;45.15;28.50;;;;;;;-2.33;78.16;95478.09;1043239;28;20009;-81
2020/12/02 19:55:02;;;;;;;52.60;30.00;;;;;;;-2.26;77.94;95483.31;1039276;28;20032;-81
2020/12/02 19:55:33;;;;;;;46.30;29.17;;;;;;;-2.37;77.08;95482.00;1041647;28;20427;-81
2020/12/02 19:56:30;;;;;;;47.95;30.33;;;;;;;-2.25;79.35;95490.13;1047457;28;20762;-81
2020/12/02 19:57:18;;;;;;;45.30;27.50;;;;;;;-2.34;76.75;95486.84;1047696;28;20032;-80
2020/12/02 19:58:05;;;;;;;46.33;28.05;;;;;;;-2.46;78.36;95485.72;1056135;28;20413;-80
2020/12/02 19:58:46;;;;;;;45.03;28.35;;;;;;;-2.48;78.09;95483.31;1043588;28;20033;-81
2020/12/02 19:59:22;;;;;;;47.42;28.42;;;;;;;-2.49;78.06;95484.28;1036086;28;20018;-81
2020/12/02 20:00:17;;;;;;;46.70;29.27;;;;;;;-2.40;79.85;95479.78;1035184;28;20029;-81
2020/12/02 20:00:51;;;;;;;48.00;28.60;;;;;;;-2.46;78.99;95486.53;1046999;28;20131;-81
2020/12/02 20:01:23;;;;;;;49.38;30.40;;;;;;;-2.53;79.24;95490.84;1047569;28;20029;-81
2020/12/02 20:02:02;;;;;;;47.13;29.75;;;;;;;-2.55;79.09;95490.22;1043410;28;20024;-82
2020/12/02 20:02:38;;;;;;;47.55;29.83;;;;;;;-2.43;80.77;95486.16;1041001;28;20018;-81
2020/12/02 20:03:29;;;;;;;45.08;29.52;;;;;;;-2.25;81.84;95497.91;1045687;28;20083;-81
2020/12/02 20:04:02;;;;;;;49.72;30.33;;;;;;;-2.37;80.83;95495.81;1049255;28;20111;-81
2020/12/02 20:04:38;;;;;;;46.72;28.92;;;;;;;-2.38;81.67;95488.19;1055646;28;20031;-81
2020/12/02 20:05:35;;;;;;;50.35;30.05;;;;;;;-2.33;81.36;95488.47;1056273;28;20030;-82
2020/12/02 20:06:10;;;;;;;48.95;29.65;;;;;;;-2.34;80.51;95497.25;1054371;28;20029;-81
2020/12/02 20:07:06;;;;;;;56.80;32.20;;;;;;;-2.43;81.33;95493.16;1053399;28;20021;-82
2020/12/02 20:07:58;;;;;;;50.00;29.75;;;;;;;-2.56;81.83;95491.22;1055403;28;20121;-82
2020/12/02 20:08:41;;;;;;;48.35;28.90;;;;;;;-2.59;82.74;95488.97;1055423;28;20058;-82
2020/12/02 20:09:19;;;;;;;49.10;30.35;;;;;;;-2.57;83.26;95491.41;1051618;28;20016;-82
2020/12/02 20:10:15;;;;;;;46.65;29.45;;;;;;;-2.60;83.48;95474.41;1047494;28;20028;-82
2020/12/02 20:10:48;;;;;;;49.58;30.02;;;;;;;-2.63;83.60;95479.94;1046616;28;20064;-82
2020/12/02 20:11:24;;;;;;;46.42;30.25;;;;;;;-2.60;84.11;95483.97;1048938;28;20199;-83
2020/12/02 20:12:06;;;;;;;50.53;32.30;;;;;;;-2.63;83.32;95486.91;1051658;28;20048;-83
2020/12/02 20:13:05;;;;;;;54.45;31.05;;;;;;;-2.55;84.53;95476.44;1050305;28;20025;-83
2020/12/02 20:14:16;;;;;;;49.17;29.35;;;;;;;-2.44;84.24;95481.97;1044681;28;20087;-82
2020/12/02 20:14:53;;;;;;;48.95;29.25;;;;;;;-2.43;83.63;95480.16;1036789;28;20499;-82
2020/12/02 20:15:33;;;;;;;46.10;28.55;;;;;;;-2.42;82.83;95490.38;1051731;28;20096;-82
2020/12/02 20:16:37;;;;;;;49.65;31.25;;;;;;;-2.46;83.73;95493.53;1051680;28;20103;-82
2020/12/02 20:17:24;;;;;;;50.35;30.92;;;;;;;-2.42;84.27;95487.78;1055720;28;20039;-82
2020/12/02 20:18:09;;;;;;;47.55;29.73;;;;;;;-2.46;83.98;95494.31;1060195;28;20523;-82
2020/12/02 20:19:21;;;;;;;51.10;30.95;;;;;;;-2.50;83.06;95500.84;1055731;28;20032;-83
2020/12/02 20:20:09;;;;;;;49.50;30.20;;;;;;;-2.54;84.70;95504.78;1039039;28;20104;-80
2020/12/02 20:20:46;;;;;;;53.78;31.40;;;;;;;-2.82;83.80;95494.28;1045401;28;20064;-82
2020/12/02 20:21:21;;;;;;;50.35;31.50;;;;;;;-2.71;84.03;95501.63;1043371;28;20025;-83
2020/12/02 20:22:15;;;;;;;50.38;30.67;;;;;;;-2.64;83.27;95499.09;1039219;28;20108;-81
2020/12/02 20:23:09;;;;;;;52.30;31.63;;;;;;;-2.63;85.25;95505.88;1039633;28;20026;-82
2020/12/02 20:23:46;;;;;;;49.78;30.42;;;;;;;-2.62;85.31;95510.06;1052219;28;20025;-82
2020/12/02 20:24:45;;;;;;;49.80;30.52;;;;;;;-2.66;84.64;95504.47;1055581;28;20075;-82
2020/12/02 20:25:19;;;;;;;52.63;31.58;;;;;;;-2.75;84.92;95515.09;1052172;28;20123;-82
2020/12/02 20:25:51;;;;;;;49.47;30.95;;;;;;;-2.75;85.88;95502.94;1052955;28;20020;-83
2020/12/02 20:26:29;;;;;;;54.03;33.00;;;;;;;-2.72;85.51;95514.78;1048789;28;20485;-82
2020/12/02 20:27:25;;;;;;;49.60;30.65;;;;;;;-2.78;85.16;95510.28;1038146;28;20506;-82
2020/12/02 20:28:20;;;;;;;58.45;34.05;;;;;;;-2.83;86.53;95513.44;1040219;28;20017;-83
2020/12/02 20:29:30;;;;;;;51.83;30.77;;;;;;;-2.72;87.04;95509.59;1041306;28;20455;-82
2020/12/02 20:30:00;;;;;;;;;;;;;;;-2.76;85.55;95508.31;1045257;28;20029;-82
2020/12/02 20:30:33;;;;;;;51.22;30.40;;;;;;;-2.72;85.47;95497.41;1045455;28;20424;-82
2020/12/02 20:31:10;;;;;;;54.53;32.28;;;;;;;-2.68;87.05;95505.63;1048808;28;20023;-82
2020/12/02 20:31:42;;;;;;;55.90;33.58;;;;;;;-2.75;86.64;95504.72;1045890;28;20037;-83
2020/12/02 20:32:20;;;;;;;58.25;34.75;;;;;;;-2.65;87.77;95500.06;1049758;28;20408;-82
2020/12/02 20:32:51;;;;;;;55.08;34.03;;;;;;;-2.76;86.28;95506.53;1048852;28;20485;-83
2020/12/02 20:33:25;;;;;;;56.13;34.88;;;;;;;-2.68;87.34;95500.44;1044540;28;20035;-82
2020/12/02 20:33:55;;;;;;;53.00;33.03;;;;;;;-2.74;86.58;95507.13;1046235;28;20017;-82
2020/12/02 20:34:39;;;;;;;52.33;32.58;;;;;;;-2.75;86.74;95509.91;1040970;28;20518;-83
2020/12/02 20:35:23;;;;;;;50.67;31.95;;;;;;;-2.78;86.52;95505.09;1050129;28;20009;-82
2020/12/02 20:35:54;;;;;;;52.88;32.22;;;;;;;-2.70;87.15;95511.00;1048572;28;20142;-82
2020/12/02 20:36:24;;;;;;;54.28;34.08;;;;;;;-2.62;87.44;95499.69;1056545;28;20098;-82
2020/12/02 20:37:17;;;;;;;52.38;32.97;;;;;;;-2.60;86.29;95504.75;1050636;28;20089;-83
2020/12/02 20:37:50;;;;;;;54.00;32.97;;;;;;;-2.85;85.28;95501.59;1039248;28;20099;-82
2020/12/02 20:38:43;;;;;;;52.80;35.28;;;;;;;-2.72;87.14;95509.59;1044643;28;20037;-82
2020/12/02 20:39:14;;;;;;;56.17;33.00;;;;;;;-2.79;85.68;95509.50;1048925;28;20017;-82
2020/12/02 20:39:47;;;;;;;54.15;31.73;;;;;;;-2.81;85.77;95510.66;1036684;28;20517;-82
2020/12/02 20:40:18;;;;;;;57.22;34.63;;;;;;;-2.81;86.95;95505.47;1037402;28;20367;-82
2020/12/02 20:40:49;;;;;;;57.75;33.95;;;;;;;-2.83;87.19;95507.44;1040721;28;20021;-83
2020/12/02 20:41:20;;;;;;;53.20;33.28;;;;;;;-2.82;85.98;95509.84;1045753;28;20028;-83
2020/12/02 20:41:50;;;;;;;52.25;31.40;;;;;;;-2.84;85.34;95508.41;1056932;28;20031;-82
2020/12/02 20:42:23;;;;;;;53.72;33.67;;;;;;;-2.82;85.73;95509.84;1057023;28;20499;-82
2020/12/02 20:42:55;;;;;;;57.33;34.40;;;;;;;-2.88;86.57;95501.97;1052939;28;20023;-81
2020/12/02 20:43:25;;;;;;;57.75;35.65;;;;;;;-2.84;87.29;95504.03;1048757;28;20029;-82
2020/12/02 20:43:55;;;;;;;54.42;32.95;;;;;;;-2.78;86.81;95508.50;1044480;28;20040;-82
2020/12/02 20:44:26;;;;;;;53.10;32.60;;;;;;;-2.78;86.37;95505.91;1040894;28;20028;-81
2020/12/02 20:44:57;;;;;;;54.50;33.63;;;;;;;-2.72;86.83;95494.03;1044591;28;20032;-81
2020/12/02 20:45:28;;;;;;;50.90;33.03;;;;;;;-2.68;86.67;95505.63;1040853;28;20074;-82
2020/12/02 20:45:59;;;;;;;51.10;32.20;;;;;;;-2.71;86.51;95499.03;1046334;28;20021;-82
2020/12/02 20:46:44;;;;;;;51.55;33.25;;;;;;;-2.68;85.99;95495.25;1044397;28;20028;-82
2020/12/02 20:47:39;;;;;;;53.65;32.63;;;;;;;-2.68;86.14;95490.06;1042672;28;20022;-82
2020/12/02 20:48:22;;;;;;;50.85;31.45;;;;;;;-2.76;85.54;95492.75;1041919;28;20029;-82
2020/12/02 20:48:53;;;;;;;53.80;32.45;;;;;;;-2.79;86.89;95493.13;1041218;28;20055;-81
2020/12/02 20:49:35;;;;;;;50.50;31.67;;;;;;;-2.77;86.27;95491.94;1040757;28;20029;-82
2020/12/02 20:50:11;;;;;;;52.75;32.28;;;;;;;-2.82;85.76;95491.69;1044733;28;20135;-82
2020/12/02 20:50:47;;;;;;;53.03;31.80;;;;;;;-2.94;85.48;95495.72;1047883;28;20033;-81
2020/12/02 20:51:39;;;;;;;55.80;34.63;;;;;;;-2.92;85.30;95498.13;1045632;28;20020;-82
2020/12/02 20:52:25;;;;;;;54.63;32.75;;;;;;;-2.96;86.09;95489.91;1047987;28;20024;-82
2020/12/02 20:53:07;;;;;;;51.45;31.30;;;;;;;-2.92;86.39;95498.13;1050316;28;20469;-81
2020/12/02 20:53:41;;;;;;;50.05;31.08;;;;;;;-2.99;87.31;95488.47;1053453;28;20032;-82
2020/12/02 20:54:12;;;;;;;52.50;32.85;;;;;;;-3.01;86.95;95492.22;1048992;28;20027;-82
2020/12/02 20:54:42;;;;;;;52.10;32.47;;;;;;;-2.98;86.98;95484.91;1045074;28;20489;-81
2020/12/02 20:55:13;;;;;;;52.10;32.15;;;;;;;-2.97;86.78;95490.88;1044760;28;20031;-82
2020/12/02 20:55:51;;;;;;;52.38;33.47;;;;;;;-2.91;87.66;95494.56;1043098;28;20387;-81
2020/12/02 20:56:29;;;;;;;50.22;31.38;;;;;;;-2.88;86.48;95504.56;1045796;28;20484;-80
2020/12/02 20:57:02;;;;;;;54.33;32.05;;;;;;;-2.90;87.14;95488.38;1042685;28;20076;-81
2020/12/02 20:57:36;;;;;;;52.38;33.00;;;;;;;-2.87;86.84;95495.81;1039181;28;20374;-81
2020/12/02 20:58:15;;;;;;;55.33;32.92;;;;;;;-2.97;86.83;95504.66;1038574;28;20411;-81
2020/12/02 20:59:00;;;;;;;57.10;33.17;;;;;;;-3.06;86.09;95495.38;1039295;28;20062;-81
2020/12/02 20:59:35;;;;;;;52.92;32.58;;;;;;;-3.07;86.26;95496.38;1051587;28;20045;-81
2020/12/02 21:00:07;;;;;;;51.67;30.23;;;;;;;-3.05;86.94;95493.59;1049104;28;20031;-82
2020/12/02 21:00:37;;;;;;;55.58;32.38;;;;;;;-3.15;86.15;95499.03;1045535;28;20025;-81
2020/12/02 21:01:08;;;;;;;55.83;32.80;;;;;;;-3.16;85.96;95497.44;1045838;28;20029;-80
2020/12/02 21:01:38;;;;;;;56.88;34.22;;;;;;;-3.14;87.17;95495.47;1041006;28;20111;-81
2020/12/02 21:02:20;;;;;;;55.60;34.15;;;;;;;-3.18;87.29;95488.22;1045450;28;20055;-83
2020/12/02 21:02:50;;;;;;;56.25;34.53;;;;;;;-3.20;86.92;95496.16;1042156;28;20029;-81
2020/12/02 21:03:22;;;;;;;54.45;34.13;;;;;;;-3.13;87.31;95491.88;1044015;28;20040;-83
2020/12/02 21:03:54;;;;;;;54.65;33.25;;;;;;;-3.09;88.22;95493.13;1044988;28;20035;-83
2020/12/02 21:04:25;;;;;;;58.97;34.90;;;;;;;-3.13;87.75;95496.25;1041193;28;20017;-82
2020/12/02 21:04:55;;;;;;;53.67;34.55;;;;;;;-3.12;87.74;95496.06;1045541;28;20367;-82
2020/12/02 21:05:28;;;;;;;54.72;34.55;;;;;;;-3.10;88.11;95491.50;1041295;28;20459;-82
2020/12/02 21:05:58;;;;;;;55.47;33.58;;;;;;;-3.12;86.55;95503.84;1045461;28;20040;-82
2020/12/02 21:06:29;;;;;;;53.33;34.40;;;;;;;-3.09;86.52;95503.50;1044662;28;20068;-83
2020/12/02 21:06:59;;;;;;;57.15;34.72;;;;;;;-3.04;87.94;95496.00;1041408;28;20104;-83
2020/12/02 21:07:30;;;;;;;55.22;34.85;;;;;;;-3.03;87.68;95502.00;1049043;28;20016;-82
2020/12/02 21:08:14;;;;;;;54.65;34.50;;;;;;;-3.09;87.04;95507.88;1049084;28;20017;-82
2020/12/02 21:08:44;;;;;;;60.80;35.13;;;;;;;-3.10;86.73;95495.91;1046872;28;20017;-82
2020/12/02 21:09:15;;;;;;;55.33;33.63;;;;;;;-2.91;88.62;95505.75;1046663;28;20088;-82
2020/12/02 21:09:47;;;;;;;55.92;33.95;;;;;;;-2.95;87.52;95500.13;1049235;28;20048;-84
2020/12/02 21:10:17;;;;;;;53.78;33.55;;;;;;;-2.97;86.71;95506.44;1045094;28;20092;-82
2020/12/02 21:10:47;;;;;;;55.15;33.65;;;;;;;-3.01;86.84;95510.38;1045206;28;20017;-82
2020/12/02 21:11:18;;;;;;;51.47;33.08;;;;;;;-3.02;86.89;95496.63;1049030;28;20016;-82
2020/12/02 21:11:48;;;;;;;55.92;33.97;;;;;;;-2.93;87.92;95501.72;1049322;28;20409;-82
2020/12/02 21:12:19;;;;;;;54.47;34.15;;;;;;;-2.98;87.07;95497.06;1049156;28;20023;-82
2020/12/02 21:12:49;;;;;;;54.97;33.38;;;;;;;-2.93;88.31;95501.72;1045193;28;20025;-81
2020/12/02 21:13:20;;;;;;;53.28;33.60;;;;;;;-2.87;88.08;95501.78;1044994;28;20060;-82
2020/12/02 21:13:51;;;;;;;57.00;34.80;;;;;;;-2.93;87.96;95499.13;1046280;28;20136;-82
2020/12/02 21:14:21;;;;;;;56.65;33.92;;;;;;;-2.99;87.15;95498.84;1051760;28;20025;-81
2020/12/02 21:14:51;;;;;;;56.13;33.22;;;;;;;-3.01;86.91;95492.22;1055758;28;20023;-81
2020/12/02 21:15:22;;;;;;;53.20;33.88;;;;;;;-2.97;87.87;95490.88;1055935;28;20027;-79
2020/12/02 21:16:10;;;;;;;51.78;32.90;;;;;;;-2.91;86.30;95492.78;1046808;28;20025;-81
2020/12/02 21:16:43;;;;;;;51.80;32.03;;;;;;;-2.89;86.16;95497.78;1045561;28;20013;-80
2020/12/02 21:17:25;;;;;;;57.30;33.95;;;;;;;-2.91;85.91;95494.56;1049470;28;20111;-81
2020/12/02 21:17:55;;;;;;;51.50;32.08;;;;;;;-2.96;86.08;95497.69;1057329;28;20743;-81
2020/12/02 21:18:44;;;;;;;55.40;33.22;;;;;;;-2.90;87.51;95503.94;1055147;28;20174;-81
2020/12/02 21:19:33;;;;;;;54.03;33.30;;;;;;;-2.99;87.37;95511.81;1053439;28;20035;-80
2020/12/02 21:20:10;;;;;;;50.83;31.85;;;;;;;-2.90;87.95;95502.16;1053391;28;20110;-81
2020/12/02 21:20:43;;;;;;;53.15;33.45;;;;;;;-2.91;87.18;95510.13;1053184;28;20047;-81
2020/12/02 21:21:23;;;;;;;52.05;33.38;;;;;;;-2.92;87.19;95508.50;1048939;28;20123;-81
2020/12/02 21:22:11;;;;;;;54.67;32.47;;;;;;;-2.88;86.27;95504.56;1045112;28;20109;-81
2020/12/02 21:23:21;;;;;;;53.15;32.53;;;;;;;-2.87;87.63;95501.00;1040606;28;20018;-79
2020/12/02 21:23:58;;;;;;;54.00;32.45;;;;;;;-2.90;87.27;95496.16;1038842;28;20029;-84
2020/12/02 21:24:34;;;;;;;53.95;30.77;;;;;;;-3.02;87.07;95499.22;1040178;28;20078;-83
2020/12/02 21:25:25;;;;;;;55.67;32.97;;;;;;;-2.86;88.00;95505.19;1048440;28;20021;-86
2020/12/02 21:26:07;;;;;;;47.95;29.52;;;;;;;-2.89;86.57;95500.38;1052992;28;20016;-80
2020/12/02 21:27:17;;;;;;;55.20;31.65;;;;;;;-2.88;86.46;95502.78;1051288;28;20028;-80
2020/12/02 21:27:47;;;;;;;51.78;30.63;;;;;;;-3.01;86.13;95506.00;1049037;28;20393;-80
2020/12/02 21:28:23;;;;;;;55.63;32.30;;;;;;;-3.07;86.89;95496.38;1050803;28;20028;-81
2020/12/02 21:28:55;;;;;;;51.95;32.58;;;;;;;-2.96;88.11;95503.69;1053133;28;20048;-81
2020/12/02 21:29:30;;;;;;;56.40;34.83;;;;;;;-2.95;88.43;95494.94;1048642;28;20025;-81
2020/12/02 21:30:07;;;;;;;54.67;33.72;;;;;;;-2.96;87.36;95502.88;1046131;28;20017;-81
2020/12/02 21:30:44;;;;;;;55.70;32.40;;;;;;;-3.01;87.32;95490.44;1040699;28;20067;-81
2020/12/02 21:31:20;;;;;;;53.20;32.30;;;;;;;-2.98;87.46;95500.44;1040677;28;20025;-80
2020/12/02 21:32:03;;;;;;;59.45;34.92;;;;;;;-3.00;87.15;95504.22;1038556;28;20156;-80
2020/12/02 21:32:41;;;;;;;53.08;32.80;;;;;;;-3.02;87.02;95495.81;1043160;28;20484;-81
2020/12/02 21:33:23;;;;;;;52.33;33.42;;;;;;;-2.99;87.19;95501.44;1043589;28;20030;-81
2020/12/02 21:34:08;;;;;;;52.80;32.90;;;;;;;-2.97;87.45;95499.47;1050575;28;20076;-80
2020/12/02 21:34:47;;;;;;;52.38;32.05;;;;;;;-3.01;87.00;95506.00;1055867;28;20024;-79
2020/12/02 21:35:39;;;;;;;55.15;33.10;;;;;;;-3.09;87.67;95500.91;1053078;28;20504;-80
2020/12/02 21:36:26;;;;;;;51.65;32.47;;;;;;;-3.02;87.73;95503.59;1044519;28;20033;-79
2020/12/02 21:37:10;;;;;;;57.55;33.38;;;;;;;-3.08;87.33;95499.09;1045417;28;20029;-81
2020/12/02 21:37:40;;;;;;;54.42;32.55;;;;;;;-3.10;87.21;95494.09;1040615;28;20087;-79
2020/12/02 21:38:22;;;;;;;57.67;34.13;;;;;;;-3.06;87.01;95490.19;1044620;28;20560;-80
2020/12/02 21:39:19;;;;;;;54.90;33.60;;;;;;;-2.84;89.07;95492.84;1044654;28;20104;-79
2020/12/02 21:40:26;;;;;;;56.90;34.25;;;;;;;-2.86;86.58;95492.22;1048489;28;20020;-76
2020/12/02 21:41:01;;;;;;;56.10;33.65;;;;;;;-2.85;88.39;95475.66;1048396;28;20508;-76
2020/12/02 21:41:39;;;;;;;60.53;34.45;;;;;;;-2.88;87.27;95489.00;1045794;28;20033;-76
2020/12/02 21:42:26;;;;;;;54.92;32.83;;;;;;;-2.87;86.64;95493.22;1048488;28;20055;-76
2020/12/02 21:43:05;;;;;;;51.70;31.33;;;;;;;-2.84;87.38;95498.03;1048274;28;20021;-77
2020/12/02 21:43:51;;;;;;;52.90;33.92;;;;;;;-2.86;87.62;95492.22;1044342;28;20043;-81
2020/12/02 21:44:38;;;;;;;56.83;33.72;;;;;;;-2.78;88.17;95489.53;1044805;28;20482;-82
2020/12/02 21:45:14;;;;;;;53.65;33.00;;;;;;;-2.92;87.12;95493.75;1040876;28;20067;-81
2020/12/02 21:46:09;;;;;;;56.95;35.10;;;;;;;-2.79;88.08;95493.94;1048532;28;20032;-82
2020/12/02 21:47:03;;;;;;;56.15;33.70;;;;;;;-2.83;87.40;95489.28;1050197;28;20469;-79
2020/12/02 21:47:42;;;;;;;53.30;33.60;;;;;;;-2.82;86.42;95493.50;1057045;28;20084;-82
2020/12/02 21:48:49;;;;;;;55.63;34.58;;;;;;;-2.82;86.58;95493.50;1053656;28;20012;-82
2020/12/02 21:49:50;;;;;;;59.85;34.15;;;;;;;-2.98;86.73;95494.47;1052719;28;20120;-82
2020/12/02 21:50:30;;;;;;;54.83;33.30;;;;;;;-3.00;87.12;95502.41;1048139;28;20489;-82
2020/12/02 21:51:00;;;;;;;;;;;;;;;-2.88;88.47;95499.38;1044899;28;20013;-83
2020/12/02 21:51:58;;;;;;;55.75;32.33;;;;;;;-2.99;86.72;95496.25;1044475;28;19912;-79
2020/12/02 21:53:01;;;;;;;55.25;32.17;;;;;;;-2.93;88.17;95499.13;1044441;28;20067;-80
2020/12/02 21:53:53;;;;;;;58.05;34.00;;;;;;;-3.00;87.46;95502.41;1048469;28;20365;-78
2020/12/02 21:54:46;;;;;;;52.08;31.27;;;;;;;-2.88;88.04;95499.38;1052857;28;20016;-79
2020/12/02 21:55:22;;;;;;;54.50;32.50;;;;;;;-2.91;87.20;95503.16;1048426;28;20052;-79
2020/12/02 21:56:12;;;;;;;56.72;33.97;;;;;;;-2.85;88.51;95496.41;1052652;28;20380;-78
2020/12/02 21:56:43;;;;;;;55.25;31.27;;;;;;;-2.87;87.88;95501.00;1048504;28;20501;-78
2020/12/02 21:57:14;;;;;;;56.03;34.08;;;;;;;-2.82;88.31;95498.69;1051244;28;20024;-79
2020/12/02 21:57:45;;;;;;;55.38;34.13;;;;;;;-2.84;87.67;95500.63;1049652;28;20016;-78
2020/12/02 21:58:15;;;;;;;52.08;32.60;;;;;;;-2.80;87.17;95496.69;1048600;28;20103;-79
2020/12/02 21:58:52;;;;;;;55.60;33.97;;;;;;;-2.80;86.86;95492.31;1052587;28;20016;-79
2020/12/02 21:59:24;;;;;;;53.13;32.75;;;;;;;-2.90;87.06;95502.16;1052670;28;20043;-79
2020/12/02 22:00:04;;;;;;;61.88;36.22;;;;;;;-2.91;87.08;95499.75;1044272;28;20037;-79
2020/12/02 22:00:35;;;;;;;55.80;34.35;;;;;;;-2.93;87.31;95501.72;1044226;28;20024;-79
2020/12/02 22:01:43;;;;;;;57.08;34.65;;;;;;;-2.87;87.75;95503.59;1046167;28;20021;-78
2020/12/02 22:02:28;;;;;;;54.53;33.30;;;;;;;-2.80;87.76;95501.88;1033865;28;20042;-78
2020/12/02 22:03:11;;;;;;;58.70;34.92;;;;;;;-2.91;87.21;95497.16;1047129;28;20697;-79
2020/12/02 22:04:02;;;;;;;54.90;33.35;;;;;;;-2.87;88.64;95490.63;1052624;28;20073;-80
2020/12/02 22:05:06;;;;;;;60.95;34.75;;;;;;;-2.77;88.76;95491.16;1056907;28;20415;-78
2020/12/02 22:05:50;;;;;;;56.72;31.73;;;;;;;-2.85;87.77;95491.22;1056832;28;20026;-76
2020/12/02 22:06:30;;;;;;;54.78;33.58;;;;;;;-2.87;87.10;95491.41;1050257;28;20113;-76
2020/12/02 22:07:08;;;;;;;55.42;33.20;;;;;;;-2.86;87.00;95485.25;1044285;28;20021;-78
2020/12/02 22:07:44;;;;;;;57.03;34.47;;;;;;;-2.93;87.37;95496.53;1040209;28;20108;-80
2020/12/02 22:08:16;;;;;;;53.42;33.13;;;;;;;-2.86;88.12;95492.22;1046600;28;20060;-80
2020/12/02 22:08:47;;;;;;;53.67;33.08;;;;;;;-2.79;88.86;95486.16;1048375;28;20393;-75
2020/12/02 22:09:33;;;;;;;57.15;35.17;;;;;;;-2.84;87.79;95485.06;1045442;28;20021;-74
2020/12/02 22:10:20;;;;;;;54.90;33.42;;;;;;;-2.74;88.24;95488.97;1044301;28;20040;-75
2020/12/02 22:10:54;;;;;;;54.28;33.20;;;;;;;-2.76;88.27;95477.19;1044833;28;20013;-75
2020/12/02 22:11:47;;;;;;;60.88;35.97;;;;;;;-2.82;87.37;95477.94;1052547;28;20027;-73
2020/12/02 22:12:17;;;;;;;55.13;33.67;;;;;;;-2.73;88.00;95485.41;1056791;28;20102;-75
2020/12/02 22:13:13;;;;;;;55.10;34.42;;;;;;;-2.70;87.96;95481.66;1056767;28;20098;-74
2020/12/02 22:13:47;;;;;;;56.97;33.00;;;;;;;-2.58;87.57;95482.81;1052383;28;20036;-73
2020/12/02 22:14:25;;;;;;;58.55;35.47;;;;;;;-2.65;87.02;95487.09;1048298;28;20033;-74
2020/12/02 22:14:58;;;;;;;58.97;33.60;;;;;;;-2.59;88.00;95473.41;1044271;28;20029;-74
2020/12/02 22:15:38;;;;;;;56.85;33.72;;;;;;;-2.60;87.65;95482.19;1048356;28;20021;-74
2020/12/02 22:16:33;;;;;;;56.40;33.45;;;;;;;-2.57;86.87;95476.63;1051342;28;20032;-75
2020/12/02 22:17:05;;;;;;;54.10;33.53;;;;;;;-2.51;88.13;95482.88;1040626;28;20021;-74
2020/12/02 22:17:50;;;;;;;61.28;35.65;;;;;;;-2.74;87.40;95472.63;1044110;28;20054;-73
2020/12/02 22:18:40;;;;;;;56.05;34.95;;;;;;;-2.75;87.43;95473.59;1035989;28;20037;-73
2020/12/02 22:19:10;;;;;;;;;;;;;;;-2.69;88.18;95476.28;1036382;28;20032;-73
2020/12/02 22:20:09;;;;;;;55.95;32.65;;;;;;;-2.71;87.16;95475.69;1036005;28;19956;-73
2020/12/02 22:20:39;;;;;;;59.60;33.17;;;;;;;-2.69;87.29;95470.31;1029939;28;20053;-74
2020/12/02 22:21:31;;;;;;;55.92;35.25;;;;;;;-2.66;88.55;95472.53;1043971;28;20524;-77
2020/12/02 22:22:17;;;;;;;66.10;35.20;;;;;;;-2.71;88.43;95474.88;1038078;28;20025;-77
2020/12/02 22:22:53;;;;;;;51.72;32.10;;;;;;;-2.67;88.49;95471.72;1037801;28;20057;-76
2020/12/02 22:23:45;;;;;;;59.08;34.03;;;;;;;-2.74;87.93;95470.03;1045383;28;20088;-77
2020/12/02 22:24:34;;;;;;;59.33;36.40;;;;;;;-2.76;88.20;95469.41;1044249;28;20559;-76
2020/12/02 22:25:23;;;;;;;58.03;33.10;;;;;;;-2.76;88.57;95477.19;1048389;28;20032;-77